createdAt,value
2023-01-19T00:01:44.568Z,100.00
2023-01-19T00:04:12.974Z,100.00
2023-01-19T00:06:41.291Z,100.00
2023-01-19T00:09:09.663Z,100.00
2023-01-19T00:11:38.399Z,100.00
2023-01-19T00:14:06.749Z,100.00
2023-01-19T00:16:35.163Z,100.00
2023-01-19T00:19:03.790Z,100.00
2023-01-19T00:21:32.165Z,100.00
2023-01-19T00:24:00.817Z,100.00
2023-01-19T00:26:29.127Z,100.00
2023-01-19T00:28:57.664Z,100.00
2023-01-19T00:31:26.049Z,100.00
2023-01-19T00:33:54.341Z,100.00
2023-01-19T00:36:22.655Z,100.00
2023-01-19T00:38:51.001Z,100.00
2023-01-19T00:41:19.488Z,100.00
2023-01-19T00:43:47.800Z,100.00
2023-01-19T00:46:16.067Z,100.00
2023-01-19T00:48:44.937Z,100.00
2023-01-19T00:51:13.233Z,100.00
2023-01-19T00:53:41.584Z,100.00
2023-01-19T00:56:09.907Z,100.00
2023-01-19T00:58:38.414Z,100.00
2023-01-19T01:01:06.790Z,100.00
2023-01-19T01:03:35.148Z,100.00
2023-01-19T01:06:03.914Z,100.00
2023-01-19T01:08:32.624Z,100.00
2023-01-19T01:11:01.297Z,100.00
2023-01-19T01:13:29.984Z,100.00
2023-01-19T01:15:58.587Z,100.00
2023-01-19T01:18:27.046Z,100.00
2023-01-19T01:21:03.301Z,100.00
2023-01-19T01:23:32.525Z,100.00
2023-01-19T01:26:01.113Z,100.00
2023-01-19T01:28:29.438Z,100.00
2023-01-19T01:30:57.853Z,100.00
2023-01-19T01:33:41.092Z,100.00
2023-01-19T01:36:12.089Z,100.00
2023-01-19T01:38:41.715Z,100.00
2023-01-19T01:41:10.959Z,100.00
2023-01-19T01:43:58.436Z,100.00
2023-01-19T01:46:29.958Z,100.00
2023-01-19T01:49:15.678Z,100.00
2023-01-19T01:51:50.916Z,100.00
2023-01-19T01:54:30.092Z,100.00
2023-01-19T01:57:05.409Z,100.00
2023-01-19T01:59:41.312Z,100.00
2023-01-19T02:02:44.008Z,100.00
2023-01-19T02:05:30.072Z,100.00
2023-01-19T02:08:27.199Z,100.00
2023-01-19T02:11:15.265Z,100.00
2023-01-19T02:13:45.104Z,100.00
2023-01-19T02:16:16.390Z,100.00
2023-01-19T02:18:45.394Z,100.00
2023-01-19T02:21:31.532Z,100.00
2023-01-19T02:24:01.617Z,100.00
2023-01-19T02:26:38.900Z,100.00
2023-01-19T02:29:13.129Z,100.00
2023-01-19T02:31:42.031Z,100.00
2023-01-19T02:34:15.391Z,100.00
2023-01-19T02:37:00.170Z,100.00
2023-01-19T02:39:36.838Z,100.00
2023-01-19T02:42:29.557Z,100.00
2023-01-19T02:44:58.263Z,100.00
2023-01-19T02:47:26.708Z,100.00
2023-01-19T02:49:58.067Z,100.00
2023-01-19T02:52:28.008Z,100.00
2023-01-19T02:55:19.815Z,100.00
2023-01-19T02:58:20.985Z,100.00
2023-01-19T03:01:08.588Z,100.00
2023-01-19T03:03:54.581Z,100.00
2023-01-19T03:07:01.368Z,100.00
2023-01-19T03:09:43.591Z,100.00
2023-01-19T03:12:19.972Z,100.00
2023-01-19T03:14:50.021Z,100.00
2023-01-19T03:17:19.191Z,100.00
2023-01-19T03:19:50.609Z,100.00
2023-01-19T03:22:27.139Z,100.00
2023-01-19T03:25:00.490Z,100.00
2023-01-19T03:27:33.946Z,100.00
2023-01-19T03:30:15.427Z,100.00
2023-01-19T03:32:52.067Z,100.00
2023-01-19T03:35:24.112Z,100.00
2023-01-19T03:37:58.151Z,100.00
2023-01-19T03:40:30.631Z,100.00
2023-01-19T03:43:02.494Z,100.00
2023-01-19T03:45:33.972Z,100.00
2023-01-19T03:48:03.060Z,100.00
2023-01-19T03:50:31.993Z,100.00
2023-01-19T03:53:13.423Z,100.00
2023-01-19T03:55:46.565Z,100.00
2023-01-19T03:58:14.827Z,100.00
2023-01-19T04:00:43.319Z,100.00
2023-01-19T04:03:15.707Z,100.00
2023-01-19T04:05:44.815Z,100.00
2023-01-19T04:08:13.238Z,100.00
2023-01-19T04:10:41.590Z,100.00
2023-01-19T04:13:09.941Z,100.00
2023-01-19T04:15:38.841Z,100.00
2023-01-19T04:18:07.213Z,100.00
2023-01-19T04:20:35.557Z,100.00
2023-01-19T04:23:04.253Z,100.00
2023-01-19T04:25:33.280Z,100.00
2023-01-19T04:28:01.594Z,100.00
2023-01-19T04:30:29.941Z,100.00
2023-01-19T04:32:59.819Z,100.00
2023-01-19T04:35:28.741Z,100.00
2023-01-19T04:37:57.110Z,100.00
2023-01-19T04:40:25.539Z,100.00
2023-01-19T04:42:54.403Z,100.00
2023-01-19T04:45:22.862Z,100.00
2023-01-19T04:47:51.986Z,100.00
2023-01-19T04:50:20.455Z,100.00
2023-01-19T04:52:49.064Z,100.00
2023-01-19T04:55:18.463Z,100.00
2023-01-19T04:57:46.807Z,100.00
2023-01-19T05:00:16.233Z,100.00
2023-01-19T05:02:45.391Z,100.00
2023-01-19T05:05:14.134Z,100.00
2023-01-19T05:07:43.582Z,100.00
2023-01-19T05:10:12.532Z,100.00
2023-01-19T05:12:42.213Z,100.00
2023-01-19T05:15:11.233Z,100.00
2023-01-19T05:17:40.091Z,100.00
2023-01-19T05:20:15.931Z,100.00
2023-01-19T05:22:52.845Z,100.00
2023-01-19T05:25:21.187Z,100.00
2023-01-19T05:27:49.511Z,100.00
2023-01-19T05:30:18.224Z,100.00
2023-01-19T05:32:46.754Z,100.00
2023-01-19T05:35:18.218Z,100.00
2023-01-19T05:37:47.174Z,100.00
2023-01-19T05:40:15.902Z,100.00
2023-01-19T05:42:44.256Z,100.00
2023-01-19T05:45:12.890Z,100.00
2023-01-19T05:47:41.320Z,100.00
2023-01-19T05:50:10.486Z,100.00
2023-01-19T05:52:38.831Z,100.00
2023-01-19T05:55:07.930Z,100.00
2023-01-19T05:57:36.258Z,100.00
2023-01-19T06:00:05.863Z,100.00
2023-01-19T06:02:34.178Z,100.00
2023-01-19T06:05:02.605Z,100.00
2023-01-19T06:07:31.820Z,100.00
2023-01-19T06:10:00.256Z,100.00
2023-01-19T06:12:28.599Z,100.00
2023-01-19T06:14:56.895Z,100.00
2023-01-19T06:17:25.215Z,100.00
2023-01-19T06:19:53.504Z,100.00
2023-01-19T06:22:21.839Z,100.00
2023-01-19T06:24:50.481Z,100.00
2023-01-19T06:27:18.869Z,100.00
2023-01-19T06:29:47.279Z,100.00
2023-01-19T06:32:15.724Z,100.00
2023-01-19T06:34:44.111Z,100.00
2023-01-19T06:37:12.559Z,100.00
2023-01-19T06:39:41.160Z,100.00
2023-01-19T06:42:09.482Z,100.00
2023-01-19T06:44:37.806Z,100.00
2023-01-19T06:47:14.963Z,100.00
2023-01-19T06:49:44.500Z,100.00
2023-01-19T06:52:17.503Z,100.00
2023-01-19T06:54:46.494Z,100.00
2023-01-19T06:57:15.300Z,100.00
2023-01-19T06:59:43.679Z,100.00
2023-01-19T07:02:26.639Z,100.00
2023-01-19T07:04:56.980Z,100.00
2023-01-19T07:07:25.978Z,100.00
2023-01-19T07:09:54.410Z,100.00
2023-01-19T07:12:23.386Z,100.00
2023-01-19T07:14:52.759Z,100.00
2023-01-19T07:17:21.116Z,100.00
2023-01-19T07:19:49.574Z,100.00
2023-01-19T07:22:18.467Z,100.00
2023-01-19T07:24:47.423Z,100.00
2023-01-19T07:27:16.463Z,100.00
2023-01-19T07:29:44.862Z,100.00
2023-01-19T07:32:13.316Z,100.00
2023-01-19T07:34:41.610Z,100.00
2023-01-19T07:37:10.020Z,100.00
2023-01-19T07:39:38.309Z,100.00
2023-01-19T07:42:07.101Z,100.00
2023-01-19T07:44:35.575Z,100.00
2023-01-19T07:47:07.532Z,100.00
2023-01-19T07:49:36.454Z,100.00
2023-01-19T07:52:05.094Z,100.00
2023-01-19T07:54:33.695Z,100.00
2023-01-19T07:57:02.054Z,100.00
2023-01-19T07:59:32.228Z,100.00
2023-01-19T08:02:00.811Z,100.00
2023-01-19T08:04:29.276Z,100.00
2023-01-19T08:06:58.189Z,100.00
2023-01-19T08:09:26.594Z,100.00
2023-01-19T08:11:54.972Z,100.00
2023-01-19T08:14:23.389Z,100.00
2023-01-19T08:16:51.749Z,100.00
2023-01-19T08:19:20.344Z,100.00
2023-01-19T08:21:48.809Z,100.00
2023-01-19T08:24:21.541Z,100.00
2023-01-19T08:26:50.283Z,100.00
2023-01-19T08:29:18.821Z,100.00
2023-01-19T08:31:47.524Z,100.00
2023-01-19T08:34:16.273Z,100.00
2023-01-19T08:36:44.637Z,100.00
2023-01-19T08:39:13.272Z,100.00
2023-01-19T08:41:41.688Z,100.00
2023-01-19T08:44:10.657Z,100.00
2023-01-19T08:46:39.062Z,100.00
2023-01-19T08:49:07.940Z,100.00
2023-01-19T08:51:36.481Z,100.00
2023-01-19T08:54:05.293Z,100.00
2023-01-19T08:56:33.597Z,100.00
2023-01-19T08:59:09.943Z,100.00
2023-01-19T09:01:39.271Z,100.00
2023-01-19T09:04:08.423Z,100.00
2023-01-19T09:06:36.891Z,100.00
2023-01-19T09:09:05.357Z,100.00
2023-01-19T09:11:34.982Z,100.00
2023-01-19T09:14:04.248Z,100.00
2023-01-19T09:16:32.653Z,100.00
2023-01-19T09:19:01.018Z,100.00
2023-01-19T09:21:29.402Z,100.00
2023-01-19T09:23:57.972Z,100.00
2023-01-19T09:26:27.080Z,100.00
2023-01-19T09:28:55.430Z,100.00
2023-01-19T09:31:24.274Z,100.00
2023-01-19T09:33:52.860Z,100.00
2023-01-19T09:36:21.177Z,99.99
2023-01-19T09:38:49.618Z,99.68
2023-01-19T09:41:22.183Z,99.69
2023-01-19T09:43:58.052Z,99.70
2023-01-19T09:46:42.340Z,99.80
2023-01-19T09:49:26.616Z,99.74
2023-01-19T09:51:55.117Z,99.63
2023-01-19T09:54:41.076Z,99.42
2023-01-19T09:57:14.736Z,99.38
2023-01-19T09:59:47.743Z,99.13
2023-01-19T10:02:44.537Z,99.30
2023-01-19T10:05:33.439Z,99.40
2023-01-19T10:08:31.871Z,98.70
2023-01-19T10:11:00.483Z,98.19
2023-01-19T10:13:49.087Z,98.04
2023-01-19T10:16:52.766Z,96.83
2023-01-19T10:19:27.773Z,96.28
2023-01-19T10:22:00.403Z,96.42
2023-01-19T10:24:44.079Z,96.52
2023-01-19T10:27:18.948Z,95.97
2023-01-19T10:29:47.380Z,95.78
2023-01-19T10:32:26.218Z,95.39
2023-01-19T10:34:55.701Z,95.23
2023-01-19T10:37:38.024Z,95.25
2023-01-19T10:40:09.301Z,94.73
2023-01-19T10:42:42.041Z,94.62
2023-01-19T10:45:30.328Z,93.77
2023-01-19T10:48:07.483Z,93.32
2023-01-19T10:50:39.895Z,92.42
2023-01-19T10:53:21.841Z,92.27
2023-01-19T10:56:22.493Z,92.15
2023-01-19T10:58:51.618Z,91.00
2023-01-19T11:01:27.044Z,91.28
2023-01-19T11:04:00.086Z,90.93
2023-01-19T11:06:31.230Z,91.15
2023-01-19T11:09:28.757Z,91.45
2023-01-19T11:11:57.040Z,90.39
2023-01-19T11:14:26.496Z,89.97
2023-01-19T11:16:58.082Z,89.64
2023-01-19T11:19:30.344Z,89.02
2023-01-19T11:22:22.772Z,88.46
2023-01-19T11:24:51.293Z,88.02
2023-01-19T11:27:21.433Z,87.82
2023-01-19T11:30:00.808Z,87.23
2023-01-19T11:32:29.203Z,86.96
2023-01-19T11:34:58.182Z,87.00
2023-01-19T11:37:31.536Z,87.02
2023-01-19T11:40:02.935Z,86.90
2023-01-19T11:42:34.415Z,86.38
2023-01-19T11:45:17.651Z,85.62
2023-01-19T11:47:49.760Z,85.01
2023-01-19T11:50:43.798Z,84.82
2023-01-19T11:53:25.454Z,84.15
2023-01-19T11:55:58.871Z,84.13
2023-01-19T11:58:27.862Z,83.92
2023-01-19T12:01:06.652Z,83.47
2023-01-19T12:03:49.250Z,83.62
2023-01-19T12:06:24.467Z,83.38
2023-01-19T12:09:12.914Z,83.32
2023-01-19T12:11:48.342Z,83.58
2023-01-19T12:14:22.658Z,83.80
2023-01-19T12:16:55.586Z,83.64
2023-01-19T12:19:35.835Z,83.38
2023-01-19T12:22:05.147Z,83.26
2023-01-19T12:24:44.645Z,83.40
2023-01-19T12:27:37.723Z,82.67
2023-01-19T12:30:18.732Z,82.76
2023-01-19T12:32:47.720Z,83.02
2023-01-19T12:35:57.760Z,83.18
2023-01-19T12:38:44.256Z,82.50
2023-01-19T12:41:40.535Z,82.36
2023-01-19T12:44:16.165Z,82.37
2023-01-19T12:47:05.285Z,82.09
2023-01-19T12:49:45.960Z,82.32
2023-01-19T12:52:31.440Z,82.44
2023-01-19T12:55:15.563Z,82.33
2023-01-19T12:58:00.733Z,81.83
2023-01-19T13:00:51.310Z,81.40
2023-01-19T13:03:19.672Z,81.68
2023-01-19T13:05:54.032Z,82.13
2023-01-19T13:08:59.843Z,82.04
2023-01-19T13:11:33.344Z,82.18
2023-01-19T13:14:02.642Z,82.03
2023-01-19T13:16:30.994Z,81.79
2023-01-19T13:19:17.980Z,81.82
2023-01-19T13:21:49.517Z,81.58
2023-01-19T13:24:24.653Z,81.62
2023-01-19T13:26:57.823Z,81.55
2023-01-19T13:29:34.073Z,81.64
2023-01-19T13:32:12.745Z,81.89
2023-01-19T13:34:46.921Z,81.79
2023-01-19T13:37:19.935Z,81.96
2023-01-19T13:39:52.832Z,81.99
2023-01-19T13:42:36.551Z,81.77
2023-01-19T13:45:29.805Z,81.49
2023-01-19T13:48:01.473Z,81.38
2023-01-19T13:50:33.992Z,81.77
2023-01-19T13:53:04.625Z,81.80
2023-01-19T13:55:33.051Z,81.86
2023-01-19T13:58:01.553Z,81.59
2023-01-19T14:00:31.029Z,81.76
2023-01-19T14:03:05.389Z,81.90
2023-01-19T14:05:37.085Z,81.46
2023-01-19T14:08:09.222Z,81.53
2023-01-19T14:11:05.205Z,81.67
2023-01-19T14:13:41.592Z,81.70
2023-01-19T14:16:17.347Z,81.57
2023-01-19T14:18:45.743Z,81.57
2023-01-19T14:21:15.998Z,81.67
2023-01-19T14:24:07.929Z,81.79
2023-01-19T14:26:52.036Z,81.45
2023-01-19T14:29:35.669Z,81.22
2023-01-19T14:32:09.798Z,81.15
2023-01-19T14:34:53.778Z,81.12
2023-01-19T14:37:35.085Z,80.84
2023-01-19T14:40:13.090Z,80.71
2023-01-19T14:43:06.285Z,80.49
2023-01-19T14:45:40.127Z,80.48
2023-01-19T14:48:21.746Z,80.66
2023-01-19T14:51:02.822Z,80.67
2023-01-19T14:53:37.247Z,80.74
2023-01-19T14:56:07.255Z,80.82
2023-01-19T14:58:36.086Z,80.97
2023-01-19T15:01:04.778Z,80.85
2023-01-19T15:03:48.746Z,80.68
2023-01-19T15:06:20.652Z,80.66
2023-01-19T15:08:50.454Z,80.83
2023-01-19T15:11:26.475Z,80.87
2023-01-19T15:13:55.557Z,81.13
2023-01-19T15:16:26.047Z,81.04
2023-01-19T15:18:55.264Z,81.09
2023-01-19T15:21:26.359Z,81.31
2023-01-19T15:23:55.800Z,81.17
2023-01-19T15:26:26.502Z,81.27
2023-01-19T15:28:56.529Z,81.60
2023-01-19T15:31:26.351Z,81.71
2023-01-19T15:33:54.952Z,81.77
2023-01-19T15:36:24.405Z,81.85
2023-01-19T15:41:30.150Z,82.09
2023-01-19T15:43:59.079Z,82.12
2023-01-19T15:46:27.518Z,82.08
2023-01-19T15:48:56.014Z,82.22
2023-01-19T15:51:26.310Z,82.52
2023-01-19T15:53:55.776Z,82.79
2023-01-19T15:56:31.068Z,82.87
2023-01-19T15:58:59.885Z,83.27
2023-01-19T16:01:33.943Z,83.13
2023-01-19T16:04:07.185Z,82.93
2023-01-19T16:06:35.664Z,83.22
2023-01-19T16:09:04.647Z,83.38
2023-01-19T16:11:35.533Z,83.22
2023-01-19T16:14:03.951Z,83.29
2023-01-19T16:16:33.051Z,83.35
2023-01-19T16:19:01.698Z,83.21
2023-01-19T16:21:30.032Z,83.38
2023-01-19T16:23:58.422Z,83.32
2023-01-19T16:26:35.192Z,83.43
2023-01-19T16:29:10.899Z,83.68
2023-01-19T16:31:42.452Z,83.90
2023-01-19T16:34:11.225Z,83.93
2023-01-19T16:36:41.647Z,84.27
2023-01-19T16:39:15.055Z,84.44
2023-01-19T16:41:46.496Z,84.38
2023-01-19T16:44:17.014Z,84.20
2023-01-19T16:46:46.969Z,84.49
2023-01-19T16:49:21.421Z,84.84
2023-01-19T16:51:50.801Z,85.09
2023-01-19T16:54:27.395Z,85.19
2023-01-19T16:56:57.307Z,85.04
2023-01-19T16:59:27.123Z,84.89
2023-01-19T17:01:56.103Z,84.81
2023-01-19T17:04:24.633Z,85.00
2023-01-19T17:06:54.895Z,85.04
2023-01-19T17:09:23.561Z,85.31
2023-01-19T17:11:51.863Z,85.28
2023-01-19T17:14:20.865Z,85.42
2023-01-19T17:16:49.473Z,85.58
2023-01-19T17:19:20.096Z,85.85
2023-01-19T17:21:49.353Z,85.94
2023-01-19T17:24:18.001Z,85.95
2023-01-19T17:26:48.633Z,85.94
2023-01-19T17:29:17.983Z,86.12
2023-01-19T17:31:46.837Z,86.05
2023-01-19T17:34:15.230Z,86.23
2023-01-19T17:36:43.721Z,86.26
2023-01-19T17:39:14.885Z,86.22
2023-01-19T17:41:43.553Z,86.24
2023-01-19T17:44:12.178Z,86.32
2023-01-19T17:46:40.779Z,86.26
2023-01-19T17:49:09.189Z,86.26
2023-01-19T17:51:37.595Z,86.01
2023-01-19T17:54:06.147Z,85.84
2023-01-19T17:56:37.602Z,86.13
2023-01-19T17:59:07.958Z,86.03
2023-01-19T18:01:40.869Z,86.27
2023-01-19T18:04:09.599Z,86.13
2023-01-19T18:06:38.452Z,86.27
2023-01-19T18:09:07.630Z,86.33
2023-01-19T18:11:36.387Z,86.43
2023-01-19T18:14:06.028Z,86.52
2023-01-19T18:16:34.583Z,86.47
2023-01-19T18:19:03.261Z,86.60
2023-01-19T18:21:31.756Z,86.70
2023-01-19T18:24:03.849Z,86.67
2023-01-19T18:26:35.212Z,86.75
2023-01-19T18:29:05.005Z,86.72
2023-01-19T18:31:33.664Z,86.87
2023-01-19T18:34:02.076Z,86.98
2023-01-19T18:36:32.612Z,87.12
2023-01-19T18:39:01.637Z,87.14
2023-01-19T18:41:30.629Z,87.04
2023-01-19T18:43:59.744Z,87.19
2023-01-19T18:46:28.440Z,87.27
2023-01-19T18:48:56.886Z,87.51
2023-01-19T18:51:25.475Z,87.45
2023-01-19T18:53:54.088Z,87.52
2023-01-19T18:56:23.590Z,87.82
2023-01-19T18:58:54.782Z,88.15
2023-01-19T19:01:32.415Z,88.23
2023-01-19T19:04:08.703Z,88.26
2023-01-19T19:06:37.109Z,88.34
2023-01-19T19:09:06.616Z,88.64
2023-01-19T19:11:35.711Z,88.78
2023-01-19T19:14:05.404Z,88.80
2023-01-19T19:16:36.930Z,88.85
2023-01-19T19:19:08.320Z,89.04
2023-01-19T19:21:36.641Z,89.26
2023-01-19T19:24:05.669Z,89.40
2023-01-19T19:26:36.948Z,89.53
2023-01-19T19:29:05.927Z,89.36
2023-01-19T19:31:35.143Z,89.55
2023-01-19T19:34:03.563Z,89.84
2023-01-19T19:36:33.994Z,89.87
2023-01-19T19:39:02.479Z,90.03
2023-01-19T19:41:32.360Z,90.23
2023-01-19T19:44:00.702Z,90.58
2023-01-19T19:46:29.132Z,90.80
2023-01-19T19:48:57.490Z,91.12
2023-01-19T19:51:28.533Z,91.31
2023-01-19T19:54:00.027Z,91.33
2023-01-19T19:56:31.430Z,91.39
2023-01-19T19:59:00.769Z,91.65
2023-01-19T20:01:33.674Z,91.63
2023-01-19T20:04:12.225Z,91.81
2023-01-19T20:06:44.721Z,91.76
2023-01-19T20:09:14.249Z,91.95
2023-01-19T20:11:45.445Z,92.17
2023-01-19T20:14:16.171Z,91.92
2023-01-19T20:16:44.662Z,91.92
2023-01-19T20:19:13.053Z,92.08
2023-01-19T20:21:42.551Z,92.06
2023-01-19T20:24:17.743Z,92.19
2023-01-19T20:26:52.830Z,92.01
2023-01-19T20:29:21.400Z,92.04
2023-01-19T20:31:54.851Z,91.87
2023-01-19T20:34:33.048Z,91.92
2023-01-19T20:37:07.008Z,91.77
2023-01-19T20:39:37.183Z,91.88
2023-01-19T20:42:09.684Z,91.83
2023-01-19T20:44:38.339Z,91.47
2023-01-19T20:47:08.397Z,91.29
2023-01-19T20:49:36.999Z,91.31
2023-01-19T20:52:05.764Z,90.94
2023-01-19T20:54:34.495Z,91.04
2023-01-19T20:57:03.261Z,91.41
2023-01-19T20:59:34.104Z,91.35
2023-01-19T21:02:03.285Z,91.42
2023-01-19T21:04:31.738Z,91.47
2023-01-19T21:07:00.160Z,91.35
2023-01-19T21:09:28.963Z,91.17
2023-01-19T21:11:57.689Z,91.26
2023-01-19T21:14:26.188Z,90.99
2023-01-19T21:16:58.300Z,91.12
2023-01-19T21:19:26.694Z,91.25
2023-01-19T21:21:57.820Z,91.50
2023-01-19T21:24:26.138Z,91.44
2023-01-19T21:26:54.473Z,91.39
2023-01-19T21:29:22.918Z,91.77
2023-01-19T21:31:51.364Z,91.76
2023-01-19T21:34:19.861Z,91.65
2023-01-19T21:36:48.320Z,91.83
2023-01-19T21:39:17.520Z,91.98
2023-01-19T21:41:45.987Z,92.19
2023-01-19T21:44:14.484Z,92.21
2023-01-19T21:46:43.461Z,92.19
2023-01-19T21:49:19.408Z,92.03
2023-01-19T21:51:50.532Z,91.96
2023-01-19T21:54:18.997Z,91.98
2023-01-19T21:56:47.367Z,91.96
2023-01-19T21:59:16.253Z,91.90
2023-01-19T22:01:45.977Z,91.81
2023-01-19T22:04:14.396Z,91.89
2023-01-19T22:06:42.969Z,91.92
2023-01-19T22:09:11.283Z,91.91
2023-01-19T22:11:39.615Z,91.96
2023-01-19T22:14:07.928Z,91.81
2023-01-19T22:16:36.329Z,91.89
2023-01-19T22:19:07.379Z,91.90
2023-01-19T22:21:35.923Z,92.20
2023-01-19T22:24:05.669Z,92.22
2023-01-19T22:26:34.698Z,92.19
2023-01-19T22:29:06.744Z,92.25
2023-01-19T22:31:35.205Z,92.58
2023-01-19T22:34:03.931Z,92.65
2023-01-19T22:36:35.815Z,92.54
2023-01-19T22:39:10.599Z,92.73
2023-01-19T22:41:42.499Z,92.91
2023-01-19T22:44:17.947Z,93.06
2023-01-19T22:46:46.771Z,93.30
2023-01-19T22:49:18.065Z,93.18
2023-01-19T22:51:47.118Z,93.00
2023-01-19T22:54:15.510Z,93.15
2023-01-19T22:56:43.901Z,93.22
2023-01-19T22:59:12.255Z,93.15
2023-01-19T23:01:43.872Z,93.17
2023-01-19T23:04:15.751Z,93.49
2023-01-19T23:06:49.224Z,93.69
2023-01-19T23:09:18.783Z,93.80
2023-01-19T23:11:50.498Z,93.61
2023-01-19T23:14:22.075Z,93.60
2023-01-19T23:16:50.735Z,93.63
2023-01-19T23:19:19.535Z,93.77
2023-01-19T23:21:52.469Z,93.90
2023-01-19T23:24:21.011Z,94.22
2023-01-19T23:26:52.514Z,94.26
2023-01-19T23:29:20.979Z,94.46
2023-01-19T23:31:50.143Z,94.42
2023-01-19T23:34:18.524Z,94.41
2023-01-19T23:36:46.917Z,94.51
2023-01-19T23:39:21.538Z,94.50
2023-01-19T23:41:50.450Z,94.38
2023-01-19T23:44:19.178Z,94.19
2023-01-19T23:46:47.583Z,94.18
2023-01-19T23:49:15.984Z,93.82
2023-01-19T23:51:44.321Z,93.73
2023-01-19T23:54:12.719Z,93.87
2023-01-19T23:56:42.664Z,94.06
2023-01-19T23:59:15.778Z,94.03
